CYYCCYXC

Guest
Details From CYYC - Calgary Intl
To CYXC - Canadian Rockies Intl
Flight Number -
Tags Generated
Created
Modified
Stats Distance 111 nm / 206 km
Max Altitude 0 ft / 0 m
Waypoints 2
Social Downloads 0
Likes 0
Share VATSIM

Download

Looking for another format? Having issues loading an existing format? Contact us
Advertisement - Login to hide

Notes

Generated

Route

CYYC CYXC

ID Type Via Altitude Latitude Longitude Leg Dist Tot Dist Heading (true) Name
O CYYC APT - 0 ft / 0 m 51.10417˚ -114.03028˚ - 0 nm - -
O CYXC APT - 0 ft / 0 m 49.62308˚ -115.78230˚ 111 nm 111 nm 218° / 216° -

Altitude Profile

Advertisement - Login to hide

CYYC

Details ICAO CYYC (YYC)
Name CALGARY INTL
Region Canada
Timezone America/Edmonton (UTC-6.0)
Stats Elevation 3,557 ft / 1,084 m (AMSL)
Location 51.113197° -114.020044°
Runways 3
Magnetic Variation 14.027° E

METAR

CYYC 230500Z 15009G15KT 15SM FEW110 19/05 A2997 RMK AC1 AC TR SLP139 DENSITY ALT 4900FT

Decode

TAF

TAF CYYC 230239Z 2303/2324 15010KT P6SM SKC BECMG 2308/2310 14005KT FM231700 16012KT P6SM FEW070 FM232100 14012KT P6SM SCT090 TEMPO 2321/2324 VRB20G30KT P6SM VCTS SCT080CB RMK NXT FCST BY 230600Z

Decode

Departure Runways

ID Width Length Bearing (true) Bearing (mag) Surface Threshold Offset Overrun Length
07 144 ft / 44 m 6,561 ft / 2,000 m 90.76° 76.73° Asphalt 0 ft / 0 m 0 ft / 0 m
10 210 ft / 64 m 8,433 ft / 2,570 m 119.00° 104.97° Asphalt 0 ft / 0 m 0 ft / 0 m
16 200 ft / 61 m 12,703 ft / 3,872 m 179.00° 164.97° Asphalt 0 ft / 0 m 0 ft / 0 m
25 144 ft / 44 m 6,561 ft / 2,000 m 270.78° 256.75° Asphalt 0 ft / 0 m 0 ft / 0 m
28 210 ft / 64 m 8,433 ft / 2,570 m 299.02° 284.99° Asphalt 0 ft / 0 m 121 ft / 37 m
34 200 ft / 61 m 12,703 ft / 3,872 m 359.00° 344.97° Asphalt 0 ft / 0 m 0 ft / 0 m

CYXC

Details ICAO CYXC (YXC)
Name CANADIAN ROCKIES INTL
Region Canada
Timezone America/Edmonton (UTC-6.0)
Stats Elevation 3,084 ft / 940 m (AMSL)
Location 49.612121° -115.782055°
Runways 1
Magnetic Variation 14.392° E

METAR

CYXC 230500Z 27008KT 25SM FEW110 19/04 A2991 RMK AC1 SLP117 DENSITY ALT 4300FT

Decode

TAF

TAF CYXC 230038Z 2301/2313 VRB03KT P6SM FEW080 RMK NXT FCST BY 230700Z

Decode

Destination Runways

ID Width Length Bearing (true) Bearing (mag) Surface Threshold Offset Overrun Length
16 150 ft / 46 m 8,000 ft / 2,438 m 179.16° 164.77° Asphalt 780 ft / 238 m 0 ft / 0 m
34 150 ft / 46 m 8,000 ft / 2,438 m 359.16° 344.77° Asphalt 0 ft / 0 m 0 ft / 0 m

Approach Navaids

Runway Type Ident Frequency Range Bearing (true) Bearing (mag) Slope Elevation
16 Localiser IXC 110.30 MHz 18 nm / 33 km 179.82° 165.43° - 3,058 ft / 932 m (AMSL)
16 Glidescope IXC 110.30 MHz 10 nm / 19 km 179.16° 164.77° 3.00° 3,015 ft / 919 m (AMSL)

Popular Alternatives